createdAt,value
2019-04-03T00:00:46.708Z,11.10
2019-04-03T00:01:50.924Z,11.10
2019-04-03T00:02:55.187Z,11.10
2019-04-03T00:03:59.414Z,11.10
2019-04-03T00:05:04.589Z,11.10
2019-04-03T00:06:09.323Z,11.10
2019-04-03T00:07:13.590Z,11.20
2019-04-03T00:08:17.834Z,11.20
2019-04-03T00:09:22.066Z,11.20
2019-04-03T00:10:26.304Z,11.20
2019-04-03T00:11:30.536Z,11.20
2019-04-03T00:12:34.799Z,11.20
2019-04-03T00:13:41.519Z,11.20
2019-04-03T00:14:44.958Z,11.20
2019-04-03T00:15:49.167Z,11.20
2019-04-03T00:16:53.400Z,11.20
2019-04-03T00:17:57.762Z,11.30
2019-04-03T00:19:01.979Z,11.30
2019-04-03T00:20:07.404Z,11.30
2019-04-03T00:21:11.689Z,11.30
2019-04-03T00:22:15.952Z,11.30
2019-04-03T00:23:21.970Z,11.30
2019-04-03T00:24:26.100Z,11.30
2019-04-03T00:25:30.395Z,11.30
2019-04-03T00:26:34.619Z,11.30
2019-04-03T00:27:39.000Z,11.30
2019-04-03T00:28:43.315Z,11.40
2019-04-03T00:29:47.519Z,11.30
2019-04-03T00:30:52.953Z,11.30
2019-04-03T00:31:57.670Z,11.30
2019-04-03T00:33:01.878Z,11.30
2019-04-03T00:34:06.034Z,11.20
2019-04-03T00:35:10.264Z,11.20
2019-04-03T00:36:14.537Z,11.20
2019-04-03T00:37:18.716Z,11.20
2019-04-03T00:38:24.224Z,11.20
2019-04-03T00:39:29.303Z,11.20
2019-04-03T00:40:33.527Z,11.20
2019-04-03T00:41:37.839Z,11.20
2019-04-03T00:42:42.093Z,11.20
2019-04-03T00:43:46.347Z,11.20
2019-04-03T00:44:50.579Z,11.20
2019-04-03T00:45:55.308Z,11.20
2019-04-03T00:46:59.543Z,11.20
2019-04-03T00:48:03.813Z,11.20
2019-04-03T00:49:08.045Z,11.20
2019-04-03T00:50:12.351Z,11.20
2019-04-03T00:51:16.572Z,11.20
2019-04-03T00:52:20.799Z,11.20
2019-04-03T00:53:27.339Z,11.20
2019-04-03T00:54:31.332Z,11.20
2019-04-03T00:55:35.850Z,11.20
2019-04-03T00:56:40.134Z,11.20
2019-04-03T00:57:44.348Z,11.20
2019-04-03T00:58:48.629Z,11.20
2019-04-03T00:59:52.845Z,11.20
2019-04-03T01:00:57.076Z,11.20
2019-04-03T01:02:01.308Z,11.20
2019-04-03T01:03:05.528Z,11.20
2019-04-03T01:04:09.783Z,11.20
2019-04-03T01:05:14.028Z,11.20
2019-04-03T01:06:18.251Z,11.20
2019-04-03T01:07:22.477Z,11.20
2019-04-03T01:08:27.835Z,11.20
2019-04-03T01:09:32.651Z,11.20
2019-04-03T01:10:36.879Z,11.20
2019-04-03T01:11:41.113Z,11.20
2019-04-03T01:12:45.336Z,11.20
2019-04-03T01:13:49.581Z,11.20
2019-04-03T01:14:53.954Z,11.10
2019-04-03T01:15:58.184Z,11.10
2019-04-03T01:17:04.412Z,11.10
2019-04-03T01:18:08.296Z,11.10
2019-04-03T01:19:12.689Z,11.10
2019-04-03T01:20:16.998Z,11.10
2019-04-03T01:21:21.214Z,11.10
2019-04-03T01:22:25.372Z,11.10
2019-04-03T01:23:29.601Z,11.10
2019-04-03T01:24:33.855Z,11.00
2019-04-03T01:25:39.679Z,11.00
2019-04-03T01:26:43.997Z,11.00
2019-04-03T01:27:48.231Z,11.00
2019-04-03T01:28:52.668Z,11.10
2019-04-03T01:29:57.082Z,11.10
2019-04-03T01:31:01.296Z,11.00
2019-04-03T01:32:05.534Z,11.10
2019-04-03T01:33:09.766Z,11.10
2019-04-03T01:34:15.636Z,11.10
2019-04-03T01:35:20.248Z,11.10
2019-04-03T01:36:24.472Z,11.20
2019-04-03T01:37:28.851Z,11.20
2019-04-03T01:38:33.036Z,11.20
2019-04-03T01:39:37.310Z,11.20
2019-04-03T01:40:41.562Z,11.30
2019-04-03T01:41:45.959Z,11.30
2019-04-03T01:42:52.578Z,11.30
2019-04-03T01:43:56.076Z,11.30
2019-04-03T01:45:00.523Z,11.20
2019-04-03T01:46:04.764Z,11.20
2019-04-03T01:47:08.990Z,11.20
2019-04-03T01:48:13.209Z,11.20
2019-04-03T01:49:17.497Z,11.20
2019-04-03T01:50:21.704Z,11.20
2019-04-03T01:51:25.947Z,11.20
2019-04-03T01:52:31.885Z,11.20
2019-04-03T01:53:36.173Z,11.10
2019-04-03T01:54:40.470Z,11.20
2019-04-03T01:55:44.724Z,11.20
2019-04-03T01:56:49.071Z,11.20
2019-04-03T01:57:53.274Z,11.20
2019-04-03T01:58:57.719Z,11.20
2019-04-03T02:00:01.967Z,11.10
2019-04-03T02:01:06.314Z,11.10
2019-04-03T02:02:12.179Z,11.10
2019-04-03T02:03:16.486Z,11.10
2019-04-03T02:04:20.704Z,11.10
2019-04-03T02:05:25.089Z,11.20
2019-04-03T02:06:29.349Z,11.20
2019-04-03T02:07:33.577Z,11.20
2019-04-03T02:08:37.790Z,11.20
2019-04-03T02:09:41.972Z,11.20
2019-04-03T02:10:48.257Z,11.20
2019-04-03T02:11:52.121Z,11.20
2019-04-03T02:12:56.339Z,11.20
2019-04-03T02:14:00.565Z,11.20
2019-04-03T02:15:04.914Z,11.20
2019-04-03T02:16:09.166Z,11.10
2019-04-03T02:17:13.412Z,11.10
2019-04-03T02:18:17.651Z,11.10
2019-04-03T02:19:21.873Z,11.10
2019-04-03T02:20:26.701Z,11.10
2019-04-03T02:21:31.580Z,11.10
2019-04-03T02:22:35.851Z,11.10
2019-04-03T02:23:40.071Z,11.10
2019-04-03T02:24:44.471Z,11.10
2019-04-03T02:25:48.695Z,11.10
2019-04-03T02:26:52.943Z,11.10
2019-04-03T02:27:57.298Z,11.10
2019-04-03T02:29:04.204Z,11.00
2019-04-03T02:30:07.413Z,11.00
2019-04-03T02:31:11.666Z,11.00
2019-04-03T02:32:16.078Z,11.00
2019-04-03T02:33:20.429Z,11.00
2019-04-03T02:34:24.655Z,11.00
2019-04-03T02:35:29.168Z,11.00
2019-04-03T02:36:33.432Z,11.00
2019-04-03T02:37:37.762Z,11.00
2019-04-03T02:38:42.110Z,11.10
2019-04-03T02:39:46.328Z,11.00
2019-04-03T02:40:50.556Z,11.00
2019-04-03T02:41:54.888Z,11.00
2019-04-03T02:42:59.149Z,11.00
2019-04-03T02:44:03.371Z,11.00
2019-04-03T02:45:07.708Z,11.00
2019-04-03T02:46:11.953Z,10.90
2019-04-03T02:47:16.216Z,10.90
2019-04-03T02:48:20.591Z,10.80
2019-04-03T02:49:25.228Z,10.80
2019-04-03T02:50:29.496Z,10.80
2019-04-03T02:51:33.994Z,10.80
2019-04-03T02:52:38.244Z,10.70
2019-04-03T02:53:42.460Z,10.70
2019-04-03T02:54:46.711Z,10.70
2019-04-03T02:55:51.047Z,10.70
2019-04-03T02:56:55.621Z,10.70
2019-04-03T02:57:59.842Z,10.60
2019-04-03T02:59:04.077Z,10.60
2019-04-03T03:00:08.724Z,10.60
2019-04-03T03:01:12.926Z,10.70
2019-04-03T03:02:17.196Z,10.60
2019-04-03T03:03:21.385Z,10.70
2019-04-03T03:04:26.117Z,10.70
2019-04-03T03:05:30.703Z,10.70
2019-04-03T03:06:34.899Z,10.70
2019-04-03T03:07:39.147Z,10.70
2019-04-03T03:08:43.382Z,10.60
2019-04-03T03:09:47.840Z,10.60
2019-04-03T03:10:53.581Z,10.60
2019-04-03T03:11:57.828Z,10.60
2019-04-03T03:13:02.480Z,10.60
2019-04-03T03:14:07.835Z,10.60
2019-04-03T03:15:12.800Z,10.50
2019-04-03T03:16:18.457Z,10.50
2019-04-03T03:17:23.651Z,10.50
2019-04-03T03:18:28.695Z,10.50
2019-04-03T03:19:33.800Z,10.50
2019-04-03T03:20:39.938Z,10.60
2019-04-03T03:21:45.375Z,10.60
2019-04-03T03:22:50.703Z,10.60
2019-04-03T03:23:56.101Z,10.60
2019-04-03T03:25:02.309Z,10.60
2019-04-03T03:26:06.738Z,10.60
2019-04-03T03:27:11.241Z,10.60
2019-04-03T03:28:15.744Z,10.50
2019-04-03T03:29:25.336Z,10.50
2019-04-03T03:30:39.930Z,10.50
2019-04-03T03:31:59.137Z,10.50
2019-04-03T03:32:37.805Z,10.50
2019-04-03T03:33:42.693Z,10.50
2019-04-03T03:34:57.331Z,10.50
2019-04-03T03:35:53.555Z,10.50
2019-04-03T03:37:00.015Z,10.50
2019-04-03T03:38:04.618Z,10.50
2019-04-03T03:39:11.000Z,10.40
2019-04-03T03:40:16.822Z,10.40
2019-04-03T03:41:22.919Z,10.40
2019-04-03T03:42:30.127Z,10.40
2019-04-03T03:43:37.100Z,10.40
2019-04-03T03:44:43.261Z,10.40
2019-04-03T03:45:51.486Z,10.30
2019-04-03T03:46:54.287Z,10.30
2019-04-03T03:47:58.480Z,10.20
2019-04-03T03:49:02.787Z,10.20
2019-04-03T03:50:07.755Z,10.20
2019-04-03T03:51:11.992Z,10.20
2019-04-03T03:52:16.459Z,10.20
2019-04-03T03:53:20.653Z,10.20
2019-04-03T03:54:25.144Z,10.20
2019-04-03T03:55:29.907Z,10.10
2019-04-03T03:56:34.132Z,10.10
2019-04-03T03:57:40.182Z,10.10
2019-04-03T03:58:45.994Z,10.10
2019-04-03T03:59:52.472Z,10.10
2019-04-03T04:00:59.514Z,10.10
2019-04-03T04:02:05.221Z,10.10
2019-04-03T04:03:10.843Z,10.10
2019-04-03T04:04:15.587Z,10.20
2019-04-03T04:05:22.262Z,10.20
2019-04-03T04:06:29.383Z,10.20
2019-04-03T04:07:36.455Z,10.20
2019-04-03T04:08:42.426Z,10.10
2019-04-03T04:09:44.306Z,10.10
2019-04-03T04:10:48.481Z,10.20
2019-04-03T04:11:52.820Z,10.10
2019-04-03T04:12:57.374Z,10.10
2019-04-03T04:14:01.691Z,10.10
2019-04-03T04:15:06.003Z,10.10
2019-04-03T04:16:10.548Z,10.10
2019-04-03T04:17:17.711Z,10.10
2019-04-03T04:18:24.016Z,10.20
2019-04-03T04:19:30.587Z,10.20
2019-04-03T04:20:36.614Z,10.10
2019-04-03T04:21:38.473Z,10.10
2019-04-03T04:22:42.913Z,10.10
2019-04-03T04:23:47.159Z,10.10
2019-04-03T04:24:51.731Z,10.10
2019-04-03T04:25:56.035Z,10.10
2019-04-03T04:27:02.328Z,10.10
2019-04-03T04:28:08.456Z,10.10
2019-04-03T04:29:12.015Z,10.10
2019-04-03T04:30:18.604Z,10.10
2019-04-03T04:31:22.815Z,10.10
2019-04-03T04:32:27.025Z,10.10
2019-04-03T04:33:31.287Z,10.10
2019-04-03T04:34:35.513Z,10.10
2019-04-03T04:35:39.734Z,10.10
2019-04-03T04:36:43.964Z,10.10
2019-04-03T04:37:48.180Z,10.10
2019-04-03T04:38:52.439Z,10.10
2019-04-03T04:39:57.960Z,10.10
2019-04-03T04:41:03.331Z,10.00
2019-04-03T04:42:07.588Z,10.10
2019-04-03T04:43:11.943Z,10.10
2019-04-03T04:44:16.183Z,10.10
2019-04-03T04:45:20.440Z,10.10
2019-04-03T04:46:24.677Z,10.00
2019-04-03T04:47:29.092Z,10.00
2019-04-03T04:48:33.342Z,10.00
2019-04-03T04:49:37.721Z,10.00
2019-04-03T04:50:41.978Z,10.00
2019-04-03T04:51:46.200Z,10.00
2019-04-03T04:52:50.566Z,10.00
2019-04-03T04:53:54.932Z,10.00
2019-04-03T04:55:01.817Z,10.00
2019-04-03T04:56:06.571Z,10.00
2019-04-03T04:57:11.883Z,10.00
2019-04-03T04:58:16.096Z,10.00
2019-04-03T04:59:20.491Z,10.00
2019-04-03T05:00:24.716Z,10.00
2019-04-03T05:01:28.992Z,10.00
2019-04-03T05:02:33.582Z,10.00
2019-04-03T05:03:37.810Z,10.00
2019-04-03T05:04:42.402Z,10.00
2019-04-03T05:05:46.880Z,10.00
2019-04-03T05:06:51.127Z,10.10
2019-04-03T05:07:55.351Z,10.10
2019-04-03T05:08:59.631Z,10.10
2019-04-03T05:10:05.633Z,10.10
2019-04-03T05:11:09.839Z,10.10
2019-04-03T05:12:14.281Z,10.10
2019-04-03T05:13:18.512Z,10.10
2019-04-03T05:14:22.771Z,10.10
2019-04-03T05:15:27.195Z,10.20
2019-04-03T05:16:31.465Z,10.20
2019-04-03T05:17:35.838Z,10.20
2019-04-03T05:18:40.252Z,10.20
2019-04-03T05:19:44.610Z,10.10
2019-04-03T05:20:50.742Z,10.10
2019-04-03T05:21:54.868Z,10.10
2019-04-03T05:22:59.319Z,10.10
2019-04-03T05:24:12.143Z,10.10
2019-04-03T05:25:09.426Z,10.20
2019-04-03T05:26:13.649Z,10.20
2019-04-03T05:27:17.900Z,10.20
2019-04-03T05:28:24.719Z,10.20
2019-04-03T05:29:28.059Z,10.20
2019-04-03T05:30:33.244Z,10.20
2019-04-03T05:31:38.943Z,10.20
2019-04-03T05:32:43.387Z,10.20
2019-04-03T05:33:47.631Z,10.20
2019-04-03T05:34:51.882Z,10.20
2019-04-03T05:35:56.098Z,10.30
2019-04-03T05:37:00.664Z,10.30
2019-04-03T05:38:04.968Z,10.30
2019-04-03T05:39:09.380Z,10.30
2019-04-03T05:40:13.600Z,10.30
2019-04-03T05:41:17.847Z,10.30
2019-04-03T05:42:22.174Z,10.30
2019-04-03T05:43:26.394Z,10.30
2019-04-03T05:44:32.841Z,10.30
2019-04-03T05:45:36.584Z,10.30
2019-04-03T05:46:40.998Z,10.30
2019-04-03T05:47:45.273Z,10.30
2019-04-03T05:48:49.499Z,10.30
2019-04-03T05:49:55.582Z,10.30
2019-04-03T05:50:59.671Z,10.30
2019-04-03T05:52:04.639Z,10.30
2019-04-03T05:53:09.175Z,10.30
2019-04-03T05:54:14.720Z,10.30
2019-04-03T05:55:19.031Z,10.30
2019-04-03T05:56:23.255Z,10.30
2019-04-03T05:57:29.196Z,10.30
2019-04-03T05:58:33.396Z,10.30
2019-04-03T05:59:37.809Z,10.30
2019-04-03T06:00:42.665Z,10.30
2019-04-03T06:01:47.265Z,10.30
2019-04-03T06:02:53.085Z,10.30
2019-04-03T06:03:57.524Z,10.30
2019-04-03T06:05:01.948Z,10.30
2019-04-03T06:06:06.308Z,10.30
2019-04-03T06:07:10.540Z,10.30
2019-04-03T06:08:14.986Z,10.30
2019-04-03T06:09:20.099Z,10.30
2019-04-03T06:10:27.724Z,10.30
2019-04-03T06:11:31.092Z,10.30
2019-04-03T06:12:37.344Z,10.30
2019-04-03T06:13:41.174Z,10.30
2019-04-03T06:14:45.496Z,10.40
2019-04-03T06:15:52.742Z,10.30
2019-04-03T06:16:56.362Z,10.30
2019-04-03T06:18:01.051Z,10.30
2019-04-03T06:19:07.194Z,10.30
2019-04-03T06:20:11.411Z,10.30
2019-04-03T06:21:16.001Z,10.30
2019-04-03T06:22:21.985Z,10.30
2019-04-03T06:23:26.393Z,10.30
2019-04-03T06:24:30.686Z,10.40
2019-04-03T06:25:34.968Z,10.40
2019-04-03T06:26:39.195Z,10.30
2019-04-03T06:27:45.817Z,10.30
2019-04-03T06:28:49.545Z,10.40
2019-04-03T06:29:55.314Z,10.30
2019-04-03T06:30:59.781Z,10.30
2019-04-03T06:32:05.728Z,10.30
2019-04-03T06:33:09.896Z,10.30
2019-04-03T06:34:14.126Z,10.30
2019-04-03T06:35:18.343Z,10.30
2019-04-03T06:36:22.739Z,10.40
2019-04-03T06:37:27.059Z,10.40
2019-04-03T06:38:31.278Z,10.40
2019-04-03T06:39:35.650Z,10.30
2019-04-03T06:40:40.000Z,10.30
2019-04-03T06:41:44.570Z,10.30
2019-04-03T06:42:48.828Z,10.30
2019-04-03T06:43:54.512Z,10.30
2019-04-03T06:44:59.191Z,10.30
2019-04-03T06:46:03.729Z,10.30
2019-04-03T06:47:08.060Z,10.40
2019-04-03T06:48:12.290Z,10.40
2019-04-03T06:49:16.568Z,10.40
2019-04-03T06:50:20.754Z,10.30
2019-04-03T06:51:25.014Z,10.30
2019-04-03T06:52:29.376Z,10.30
2019-04-03T06:53:33.676Z,10.30
2019-04-03T06:54:37.927Z,10.40
2019-04-03T06:55:42.197Z,10.30
2019-04-03T06:56:46.423Z,10.40
2019-04-03T06:57:50.854Z,10.30
2019-04-03T06:58:55.109Z,10.30
2019-04-03T06:59:59.335Z,10.30
2019-04-03T07:01:03.586Z,10.30
2019-04-03T07:02:07.828Z,10.30
2019-04-03T07:03:12.071Z,10.30
2019-04-03T07:04:16.295Z,10.30
2019-04-03T07:05:20.522Z,10.40
2019-04-03T07:06:24.781Z,10.40
2019-04-03T07:07:34.283Z,10.40
2019-04-03T07:08:36.612Z,10.40
2019-04-03T07:09:40.858Z,10.40
2019-04-03T07:10:54.684Z,10.50
2019-04-03T07:11:51.052Z,10.50
2019-04-03T07:12:55.279Z,10.50
2019-04-03T07:13:59.506Z,10.50
2019-04-03T07:15:04.109Z,10.50
2019-04-03T07:16:08.619Z,10.60
2019-04-03T07:17:12.836Z,10.60
2019-04-03T07:18:17.048Z,10.60
2019-04-03T07:19:21.264Z,10.60
2019-04-03T07:20:25.531Z,10.70
2019-04-03T07:21:29.960Z,10.70
2019-04-03T07:22:34.239Z,10.70
2019-04-03T07:23:38.464Z,10.70
2019-04-03T07:24:42.723Z,10.70
2019-04-03T07:25:46.924Z,10.70
2019-04-03T07:26:51.182Z,10.70
2019-04-03T07:27:55.407Z,10.70
2019-04-03T07:28:59.643Z,10.70
2019-04-03T07:30:04.154Z,10.70
2019-04-03T07:31:08.630Z,10.80
2019-04-03T07:32:12.933Z,10.80
2019-04-03T07:33:17.161Z,10.80
2019-04-03T07:34:21.375Z,10.80
2019-04-03T07:35:25.645Z,10.80
2019-04-03T07:36:29.896Z,10.80
2019-04-03T07:37:34.121Z,10.80
2019-04-03T07:38:38.357Z,10.80
2019-04-03T07:39:42.761Z,10.80
2019-04-03T07:40:47.016Z,10.80
2019-04-03T07:41:53.238Z,10.80
2019-04-03T07:42:57.537Z,10.80
2019-04-03T07:44:01.764Z,10.80
2019-04-03T07:45:06.049Z,10.80
2019-04-03T07:46:10.255Z,10.80
2019-04-03T07:47:14.557Z,10.80
2019-04-03T07:48:18.784Z,10.80
2019-04-03T07:49:23.008Z,10.80
2019-04-03T07:50:27.239Z,10.80
2019-04-03T07:51:31.490Z,10.80
2019-04-03T07:52:35.929Z,10.80
2019-04-03T07:53:40.183Z,10.80
2019-04-03T07:54:44.640Z,10.70
2019-04-03T07:55:48.955Z,10.80
2019-04-03T07:56:53.192Z,10.70
2019-04-03T07:57:57.708Z,10.70
2019-04-03T07:59:03.898Z,10.80
2019-04-03T08:00:09.300Z,10.80
2019-04-03T08:01:14.146Z,10.80
2019-04-03T08:02:18.785Z,10.70
2019-04-03T08:03:23.217Z,10.80
2019-04-03T08:04:27.483Z,10.80
2019-04-03T08:05:31.725Z,10.80
2019-04-03T08:06:36.459Z,10.90
2019-04-03T08:07:40.692Z,10.90
2019-04-03T08:08:45.168Z,10.90
2019-04-03T08:09:49.528Z,10.90
2019-04-03T08:10:53.711Z,10.90
2019-04-03T08:11:57.937Z,10.90
2019-04-03T08:13:02.195Z,11.00
2019-04-03T08:14:08.278Z,11.00
2019-04-03T08:15:13.498Z,11.00
2019-04-03T08:16:18.662Z,11.00
2019-04-03T08:17:23.243Z,11.00
2019-04-03T08:18:27.532Z,11.00
2019-04-03T08:19:31.968Z,11.00
2019-04-03T08:20:36.198Z,11.00
2019-04-03T08:21:42.261Z,11.00
2019-04-03T08:22:46.594Z,11.00
2019-04-03T08:23:50.820Z,11.00
2019-04-03T08:24:55.669Z,11.00
2019-04-03T08:25:59.991Z,11.10
2019-04-03T08:27:07.438Z,11.10
2019-04-03T08:28:11.076Z,11.10
2019-04-03T08:29:15.334Z,11.00
2019-04-03T08:30:19.556Z,11.00
2019-04-03T08:31:25.856Z,11.00
2019-04-03T08:32:30.088Z,11.00
2019-04-03T08:33:34.351Z,10.90
2019-04-03T08:34:38.734Z,10.90
2019-04-03T08:35:43.165Z,10.90
2019-04-03T08:36:47.548Z,11.00
2019-04-03T08:37:51.919Z,11.00
2019-04-03T08:38:56.147Z,11.00
2019-04-03T08:40:00.701Z,11.00
2019-04-03T08:41:05.216Z,11.00
2019-04-03T08:42:09.455Z,11.00
2019-04-03T08:43:14.133Z,11.00
2019-04-03T08:44:18.593Z,11.10
2019-04-03T08:45:22.826Z,11.10
2019-04-03T08:46:27.084Z,11.10
2019-04-03T08:47:31.303Z,11.20
2019-04-03T08:48:35.571Z,11.20
2019-04-03T08:49:39.805Z,11.20
2019-04-03T08:50:44.068Z,11.20
2019-04-03T08:51:48.282Z,11.20
2019-04-03T08:52:52.497Z,11.30
2019-04-03T08:53:56.752Z,11.30
2019-04-03T08:55:00.995Z,11.20
2019-04-03T08:56:05.695Z,11.30
2019-04-03T08:57:09.970Z,11.30
2019-04-03T08:58:14.220Z,11.30
2019-04-03T08:59:18.460Z,11.20
2019-04-03T09:00:22.839Z,11.20
2019-04-03T09:01:27.059Z,11.20
2019-04-03T09:02:31.302Z,11.20
2019-04-03T09:03:35.583Z,11.10
2019-04-03T09:04:39.871Z,11.10
2019-04-03T09:05:44.344Z,11.00
2019-04-03T09:06:48.735Z,11.00
2019-04-03T09:07:55.374Z,10.90
2019-04-03T09:08:59.251Z,10.90
2019-04-03T09:10:03.575Z,10.80
2019-04-03T09:11:07.799Z,10.80
2019-04-03T09:12:12.026Z,10.80
2019-04-03T09:13:18.847Z,10.80
2019-04-03T09:14:23.618Z,10.70
2019-04-03T09:15:28.676Z,10.70
2019-04-03T09:16:32.939Z,10.70
2019-04-03T09:17:37.171Z,10.70
2019-04-03T09:18:41.446Z,10.70
2019-04-03T09:19:45.965Z,10.60
2019-04-03T09:20:50.319Z,10.60
2019-04-03T09:21:54.618Z,10.60
2019-04-03T09:22:58.858Z,10.60
2019-04-03T09:24:03.105Z,10.60
2019-04-03T09:25:07.542Z,10.60
2019-04-03T09:26:12.062Z,10.60
2019-04-03T09:27:16.303Z,10.60
2019-04-03T09:28:20.530Z,10.60
2019-04-03T09:29:25.105Z,10.70
2019-04-03T09:30:29.542Z,10.70
2019-04-03T09:31:34.211Z,10.70
2019-04-03T09:32:38.506Z,10.70
2019-04-03T09:33:42.774Z,10.70
2019-04-03T09:34:47.011Z,10.80
2019-04-03T09:35:51.243Z,10.80
2019-04-03T09:36:55.870Z,10.80
2019-04-03T09:38:00.135Z,10.90
2019-04-03T09:39:07.402Z,10.90
2019-04-03T09:40:11.628Z,10.90
2019-04-03T09:41:17.126Z,11.00
2019-04-03T09:42:21.813Z,11.00
2019-04-03T09:43:26.170Z,11.10
2019-04-03T09:44:30.898Z,11.10
2019-04-03T09:45:35.143Z,11.20
2019-04-03T09:46:39.379Z,11.20
2019-04-03T09:47:43.609Z,11.30
2019-04-03T09:48:47.894Z,11.30
2019-04-03T09:49:52.186Z,11.30
2019-04-03T09:50:56.487Z,11.30
2019-04-03T09:52:00.836Z,11.30
2019-04-03T09:53:05.060Z,11.30
2019-04-03T09:54:09.284Z,11.20
2019-04-03T09:55:13.535Z,11.30
2019-04-03T09:56:17.763Z,11.30
2019-04-03T09:57:22.179Z,11.30
2019-04-03T09:58:26.415Z,11.30
2019-04-03T09:59:30.667Z,11.30
2019-04-03T10:00:35.191Z,11.40
2019-04-03T10:01:39.528Z,11.40
2019-04-03T10:02:43.752Z,11.40
2019-04-03T10:03:47.988Z,11.40
2019-04-03T10:04:52.244Z,11.50
2019-04-03T10:05:56.493Z,11.50
2019-04-03T10:07:02.281Z,11.50
2019-04-03T10:08:08.430Z,11.60
2019-04-03T10:09:12.756Z,11.60
2019-04-03T10:10:17.668Z,11.50
2019-04-03T10:11:21.887Z,11.50
2019-04-03T10:12:26.418Z,11.50
2019-04-03T10:13:30.638Z,11.40
2019-04-03T10:14:34.898Z,11.40
2019-04-03T10:15:39.365Z,11.50
2019-04-03T10:16:43.965Z,11.50
2019-04-03T10:17:48.794Z,11.60
2019-04-03T10:18:53.139Z,11.70
2019-04-03T10:19:57.400Z,11.80
2019-04-03T10:21:01.631Z,11.90
2019-04-03T10:22:06.139Z,11.90
2019-04-03T10:23:10.373Z,11.90
2019-04-03T10:24:14.594Z,11.90
2019-04-03T10:25:18.855Z,11.90
2019-04-03T10:26:23.206Z,11.80
2019-04-03T10:27:27.456Z,11.80
2019-04-03T10:28:31.987Z,11.80
2019-04-03T10:29:36.455Z,11.80
2019-04-03T10:30:40.718Z,11.90
2019-04-03T10:31:44.959Z,11.80
2019-04-03T10:32:49.113Z,11.70
2019-04-03T10:33:53.344Z,11.50
2019-04-03T10:34:57.972Z,11.50
2019-04-03T10:36:02.534Z,11.50
2019-04-03T10:37:07.006Z,11.50
2019-04-03T10:38:11.188Z,11.50
2019-04-03T10:39:16.032Z,11.60
2019-04-03T10:40:23.639Z,11.60
2019-04-03T10:41:28.390Z,11.60
2019-04-03T10:42:32.119Z,11.60
2019-04-03T10:43:37.609Z,11.60
2019-04-03T10:44:42.279Z,11.70
2019-04-03T10:45:46.622Z,11.80
2019-04-03T10:46:51.231Z,11.80
2019-04-03T10:47:56.696Z,11.90
2019-04-03T10:49:01.322Z,11.90
2019-04-03T10:50:06.034Z,11.90
2019-04-03T10:51:10.297Z,11.80
2019-04-03T10:52:15.157Z,11.90
2019-04-03T10:53:20.025Z,11.90
2019-04-03T10:54:25.705Z,11.90
2019-04-03T10:55:30.452Z,11.90
2019-04-03T10:56:34.673Z,12.00
2019-04-03T10:57:38.899Z,12.10
2019-04-03T10:58:43.800Z,12.10
2019-04-03T10:59:52.969Z,12.20
2019-04-03T11:00:54.142Z,12.10
2019-04-03T11:01:58.674Z,12.20
2019-04-03T11:03:03.024Z,12.20
2019-04-03T11:04:07.221Z,12.20
2019-04-03T11:05:11.857Z,12.40
2019-04-03T11:06:16.200Z,12.40
2019-04-03T11:07:20.422Z,12.40
2019-04-03T11:08:24.774Z,12.30
2019-04-03T11:09:29.001Z,12.40
2019-04-03T11:10:33.259Z,12.30
2019-04-03T11:11:37.705Z,12.30
2019-04-03T11:12:41.935Z,12.40
2019-04-03T11:13:46.172Z,12.40
2019-04-03T11:14:50.494Z,12.40
2019-04-03T11:15:54.845Z,12.40
2019-04-03T11:16:59.167Z,12.50
2019-04-03T11:18:03.760Z,12.40
2019-04-03T11:19:08.143Z,12.40
2019-04-03T11:20:12.424Z,12.40
2019-04-03T11:21:16.652Z,12.40
2019-04-03T11:22:21.163Z,12.40
2019-04-03T11:23:36.928Z,12.30
2019-04-03T11:24:31.345Z,12.20
2019-04-03T11:25:36.135Z,12.10
2019-04-03T11:26:40.390Z,12.10
2019-04-03T11:27:46.182Z,12.00
2019-04-03T11:28:50.669Z,12.10
2019-04-03T11:29:55.146Z,12.10
2019-04-03T11:31:00.824Z,12.20
2019-04-03T11:32:05.649Z,12.30
2019-04-03T11:33:13.430Z,12.40
2019-04-03T11:34:18.428Z,12.60
2019-04-03T11:35:22.948Z,12.70
2019-04-03T11:36:30.104Z,12.80
2019-04-03T11:37:33.834Z,12.80
2019-04-03T11:38:38.087Z,12.80
2019-04-03T11:39:43.851Z,12.90
2019-04-03T11:40:50.340Z,13.00
2019-04-03T11:41:55.601Z,13.00
2019-04-03T11:42:59.984Z,13.00
2019-04-03T11:44:04.203Z,13.00
2019-04-03T11:45:08.432Z,12.90
2019-04-03T11:46:12.735Z,12.90
2019-04-03T11:47:16.907Z,12.80
2019-04-03T11:48:21.265Z,12.70
2019-04-03T11:49:25.452Z,12.60
2019-04-03T11:50:29.953Z,12.60
2019-04-03T11:51:34.545Z,12.60
2019-04-03T11:52:38.987Z,12.60
2019-04-03T11:53:45.248Z,12.50
2019-04-03T11:54:51.123Z,12.40
2019-04-03T11:55:55.245Z,12.30
2019-04-03T11:56:59.897Z,12.30
2019-04-03T11:58:04.199Z,12.30
2019-04-03T11:59:08.555Z,12.40
2019-04-03T12:00:18.704Z,12.50
2019-04-03T12:01:23.030Z,12.60
2019-04-03T12:02:27.310Z,12.50
2019-04-03T12:03:31.554Z,12.60
2019-04-03T12:04:35.763Z,12.70
2019-04-03T12:05:39.992Z,12.70
2019-04-03T12:06:44.336Z,12.80
2019-04-03T12:07:48.519Z,12.80
2019-04-03T12:08:52.742Z,12.80
2019-04-03T12:09:57.217Z,12.90
2019-04-03T12:11:01.556Z,13.00
2019-04-03T12:12:09.435Z,13.20
2019-04-03T12:13:13.641Z,13.40
2019-04-03T12:14:18.705Z,13.50
2019-04-03T12:15:22.979Z,13.60
2019-04-03T12:16:27.199Z,13.70
2019-04-03T12:17:31.450Z,13.60
2019-04-03T12:18:35.679Z,13.40
2019-04-03T12:19:39.892Z,13.30
2019-04-03T12:20:45.585Z,13.20
2019-04-03T12:21:51.229Z,13.20
2019-04-03T12:22:55.825Z,13.10
2019-04-03T12:24:00.067Z,13.10
2019-04-03T12:25:04.512Z,13.00
2019-04-03T12:26:09.055Z,12.90
2019-04-03T12:27:14.843Z,12.70
2019-04-03T12:28:19.897Z,12.80
2019-04-03T12:29:24.240Z,12.80
2019-04-03T12:30:28.596Z,12.80
2019-04-03T12:31:32.782Z,12.80
2019-04-03T12:32:42.677Z,12.80
2019-04-03T12:33:53.148Z,12.80
2019-04-03T12:34:48.787Z,12.80
2019-04-03T12:35:53.020Z,12.90
2019-04-03T12:36:57.275Z,13.00
2019-04-03T12:38:01.527Z,13.00
2019-04-03T12:39:11.528Z,13.20
2019-04-03T12:40:15.865Z,13.30
2019-04-03T12:41:20.112Z,13.50
2019-04-03T12:42:24.552Z,13.60
2019-04-03T12:43:28.783Z,13.90
2019-04-03T12:44:33.030Z,14.00
2019-04-03T12:45:43.700Z,14.00
2019-04-03T12:46:47.980Z,14.10
2019-04-03T12:47:52.159Z,14.20
2019-04-03T12:48:56.549Z,14.20
2019-04-03T12:50:00.828Z,14.20
2019-04-03T12:51:05.428Z,14.10
2019-04-03T12:52:09.942Z,14.10
2019-04-03T12:53:16.449Z,14.10
2019-04-03T12:54:21.045Z,14.10
2019-04-03T12:55:26.335Z,13.90
2019-04-03T12:56:31.418Z,13.70
2019-04-03T12:57:38.182Z,13.60
2019-04-03T12:58:41.527Z,13.40
2019-04-03T12:59:47.632Z,13.30
2019-04-03T13:00:51.612Z,13.30
2019-04-03T13:01:56.144Z,13.20
2019-04-03T13:03:00.420Z,13.20
2019-04-03T13:04:04.789Z,13.10
2019-04-03T13:05:09.063Z,13.00
2019-04-03T13:06:13.424Z,12.80
2019-04-03T13:07:17.786Z,12.80
2019-04-03T13:08:22.032Z,12.70
2019-04-03T13:09:26.518Z,12.60
2019-04-03T13:10:41.345Z,12.60
2019-04-03T13:11:36.720Z,12.50
2019-04-03T13:12:41.289Z,12.60
2019-04-03T13:13:45.946Z,12.60
2019-04-03T13:14:50.135Z,12.60
2019-04-03T13:15:54.659Z,12.50
2019-04-03T13:16:59.366Z,12.50
2019-04-03T13:18:03.681Z,12.40
2019-04-03T13:19:08.310Z,12.40
2019-04-03T13:20:13.466Z,12.40
2019-04-03T13:21:17.645Z,12.40
2019-04-03T13:22:22.177Z,12.40
2019-04-03T13:23:26.717Z,12.50
2019-04-03T13:24:31.381Z,12.50
2019-04-03T13:25:35.665Z,12.50
2019-04-03T13:26:40.543Z,12.60
2019-04-03T13:27:45.023Z,12.60
2019-04-03T13:28:49.271Z,12.60
2019-04-03T13:29:53.545Z,12.60
2019-04-03T13:30:57.751Z,12.60
2019-04-03T13:32:02.005Z,12.60
2019-04-03T13:33:07.707Z,12.80
2019-04-03T13:34:12.059Z,12.80
2019-04-03T13:35:16.693Z,12.90
2019-04-03T13:36:23.701Z,13.00
2019-04-03T13:37:27.497Z,13.00
2019-04-03T13:38:31.819Z,13.00
2019-04-03T13:39:36.100Z,13.00
2019-04-03T13:40:40.640Z,13.00
2019-04-03T13:41:44.969Z,13.00
2019-04-03T13:42:49.638Z,13.20
2019-04-03T13:43:55.016Z,13.30
2019-04-03T13:45:00.178Z,13.50
2019-04-03T13:46:05.086Z,13.50
2019-04-03T13:47:09.891Z,13.50
2019-04-03T13:48:14.500Z,13.60
2019-04-03T13:49:19.604Z,13.70
2019-04-03T13:50:24.078Z,13.70
2019-04-03T13:51:28.978Z,13.60
2019-04-03T13:52:41.034Z,13.60